createdAt,value
2018-06-14T00:02:15.961Z,13.00
2018-06-14T00:04:45.059Z,13.00
2018-06-14T00:07:14.140Z,12.93
2018-06-14T00:09:43.496Z,13.64
2018-06-14T00:12:12.821Z,12.99
2018-06-14T00:14:42.131Z,13.02
2018-06-14T00:17:11.457Z,12.95
2018-06-14T00:19:40.535Z,12.86
2018-06-14T00:22:09.862Z,12.90
2018-06-14T00:24:39.174Z,12.88
2018-06-14T00:27:08.492Z,12.88
2018-06-14T00:29:37.813Z,12.84
2018-06-14T00:32:07.180Z,12.94
2018-06-14T00:34:36.492Z,12.92
2018-06-14T00:37:05.804Z,12.89
2018-06-14T00:39:35.457Z,12.81
2018-06-14T00:42:04.688Z,12.83
2018-06-14T00:44:34.504Z,12.82
2018-06-14T00:47:03.844Z,12.75
2018-06-14T00:49:33.160Z,12.71
2018-06-14T00:52:02.257Z,12.75
2018-06-14T00:54:31.564Z,12.62
2018-06-14T00:57:11.749Z,12.63
2018-06-14T00:59:41.053Z,12.49
2018-06-14T01:02:10.368Z,12.43
2018-06-14T01:04:39.681Z,12.48
2018-06-14T01:07:09.004Z,12.44
2018-06-14T01:09:38.328Z,12.10
2018-06-14T01:12:07.749Z,12.39
2018-06-14T01:14:37.138Z,12.53
2018-06-14T01:17:07.065Z,12.53
2018-06-14T01:19:36.463Z,12.56
2018-06-14T01:22:05.996Z,12.54
2018-06-14T01:24:35.395Z,12.55
2018-06-14T01:27:10.394Z,12.59
2018-06-14T01:29:39.818Z,12.43
2018-06-14T01:32:09.201Z,12.37
2018-06-14T01:34:38.582Z,12.41
2018-06-14T01:37:07.943Z,12.37
2018-06-14T01:39:37.312Z,11.70
2018-06-14T01:42:06.695Z,11.70
2018-06-14T01:44:36.078Z,11.73
2018-06-14T01:47:05.498Z,12.35
2018-06-14T01:49:34.636Z,12.27
2018-06-14T01:52:04.022Z,12.35
2018-06-14T01:54:33.405Z,12.45
2018-06-14T01:57:02.785Z,12.48
2018-06-14T01:59:32.164Z,12.42
2018-06-14T02:02:01.540Z,12.50
2018-06-14T02:04:30.912Z,12.41
2018-06-14T02:07:00.300Z,12.48
2018-06-14T02:09:29.687Z,12.44
2018-06-14T02:11:59.068Z,12.47
2018-06-14T02:14:28.457Z,12.42
2018-06-14T02:16:57.856Z,12.44
2018-06-14T02:19:27.241Z,12.32
2018-06-14T02:21:56.652Z,11.67
2018-06-14T02:24:26.022Z,12.29
2018-06-14T02:26:55.409Z,12.22
2018-06-14T02:29:24.535Z,12.23
2018-06-14T02:31:53.975Z,12.25
2018-06-14T02:34:23.365Z,12.27
2018-06-14T02:36:52.746Z,12.19
2018-06-14T02:39:22.125Z,12.15
2018-06-14T02:41:51.327Z,12.18
2018-06-14T02:44:20.699Z,12.09
2018-06-14T02:46:50.020Z,12.02
2018-06-14T02:49:19.121Z,12.02
2018-06-14T02:51:48.197Z,12.04
2018-06-14T02:54:17.544Z,12.09
2018-06-14T02:56:46.899Z,12.23
2018-06-14T02:59:16.271Z,12.11
2018-06-14T03:01:45.633Z,12.09
2018-06-14T03:04:14.984Z,12.06
2018-06-14T03:06:44.361Z,12.05
2018-06-14T03:09:13.694Z,12.07
2018-06-14T03:11:43.036Z,12.04
2018-06-14T03:14:12.396Z,11.97
2018-06-14T03:16:41.757Z,11.98
2018-06-14T03:19:11.100Z,11.99
2018-06-14T03:21:40.468Z,11.93
2018-06-14T03:24:09.816Z,11.98
2018-06-14T03:26:39.163Z,13.18
2018-06-14T03:29:08.598Z,11.99
2018-06-14T03:31:37.945Z,11.94
2018-06-14T03:34:07.268Z,11.88
2018-06-14T03:36:36.621Z,11.94
2018-06-14T03:39:09.014Z,12.56
2018-06-14T03:41:38.147Z,11.89
2018-06-14T03:44:08.534Z,11.99
2018-06-14T03:46:37.982Z,12.01
2018-06-14T03:49:07.327Z,11.95
2018-06-14T03:51:36.399Z,11.91
2018-06-14T03:54:05.813Z,11.77
2018-06-14T03:56:35.156Z,12.64
2018-06-14T03:59:04.487Z,11.95
2018-06-14T04:01:33.821Z,12.05
2018-06-14T04:04:03.247Z,12.09
2018-06-14T04:06:32.541Z,12.05
2018-06-14T04:09:01.889Z,12.14
2018-06-14T04:11:31.256Z,12.10
2018-06-14T04:14:00.612Z,12.17
2018-06-14T04:16:29.950Z,12.13
2018-06-14T04:18:59.279Z,12.11
2018-06-14T04:21:28.627Z,12.18
2018-06-14T04:23:57.711Z,12.23
2018-06-14T04:26:27.220Z,12.11
2018-06-14T04:28:56.553Z,12.14
2018-06-14T04:31:26.057Z,12.10
2018-06-14T04:33:55.412Z,12.21
2018-06-14T04:36:24.751Z,12.26
2018-06-14T04:38:54.109Z,11.63
2018-06-14T04:41:23.454Z,12.24
2018-06-14T04:43:52.801Z,12.31
2018-06-14T04:46:22.136Z,12.34
2018-06-14T04:48:51.246Z,12.37
2018-06-14T04:51:20.319Z,12.39
2018-06-14T04:53:49.665Z,12.92
2018-06-14T04:56:19.008Z,11.71
2018-06-14T04:58:48.352Z,11.73
2018-06-14T05:01:17.693Z,12.46
2018-06-14T05:03:47.052Z,12.55
2018-06-14T05:06:16.392Z,12.57
2018-06-14T05:08:45.751Z,12.67
2018-06-14T05:11:15.080Z,12.65
2018-06-14T05:13:44.524Z,12.72
2018-06-14T05:16:13.856Z,12.68
2018-06-14T05:18:43.269Z,12.77
2018-06-14T05:21:12.596Z,12.75
2018-06-14T05:23:41.950Z,12.80
2018-06-14T05:26:11.308Z,12.68
2018-06-14T05:28:40.660Z,12.81
2018-06-14T05:31:10.007Z,12.87
2018-06-14T05:33:39.363Z,12.99
2018-06-14T05:36:09.172Z,12.93
2018-06-14T05:38:38.544Z,13.00
2018-06-14T05:41:07.910Z,12.94
2018-06-14T05:43:37.269Z,12.92
2018-06-14T05:46:06.375Z,12.98
2018-06-14T05:48:35.769Z,13.05
2018-06-14T05:51:05.140Z,12.38
2018-06-14T05:53:34.513Z,13.02
2018-06-14T05:56:03.932Z,13.04
2018-06-14T05:58:33.296Z,13.11
2018-06-14T06:01:02.698Z,13.19
2018-06-14T06:03:32.077Z,13.21
2018-06-14T06:06:01.208Z,13.22
2018-06-14T06:08:30.617Z,13.11
2018-06-14T06:10:59.979Z,13.24
2018-06-14T06:13:29.359Z,13.37
2018-06-14T06:15:58.703Z,12.62
2018-06-14T06:18:28.054Z,13.54
2018-06-14T06:20:57.385Z,13.57
2018-06-14T06:23:26.508Z,13.62
2018-06-14T06:25:55.836Z,13.78
2018-06-14T06:28:25.224Z,13.60
2018-06-14T06:30:54.569Z,13.75
2018-06-14T06:33:23.807Z,13.76
2018-06-14T06:35:52.739Z,13.82
2018-06-14T06:38:22.081Z,13.74
2018-06-14T06:40:51.428Z,13.81
2018-06-14T06:43:20.740Z,13.93
2018-06-14T06:45:50.081Z,13.91
2018-06-14T06:48:19.403Z,13.99
2018-06-14T06:50:48.734Z,14.01
2018-06-14T06:53:18.180Z,13.44
2018-06-14T06:55:47.452Z,14.05
2018-06-14T06:58:16.792Z,14.07
2018-06-14T07:00:46.200Z,14.22
2018-06-14T07:03:15.532Z,14.15
2018-06-14T07:05:45.143Z,14.15
2018-06-14T07:08:14.456Z,13.98
2018-06-14T07:10:43.808Z,13.98
2018-06-14T07:13:13.156Z,14.03
2018-06-14T07:15:42.548Z,14.10
2018-06-14T07:18:11.688Z,14.33
2018-06-14T07:20:41.059Z,14.29
2018-06-14T07:23:10.399Z,14.46
2018-06-14T07:25:39.795Z,14.53
2018-06-14T07:28:09.094Z,14.64
2018-06-14T07:30:38.477Z,14.60
2018-06-14T07:33:07.864Z,16.04
2018-06-14T07:35:37.215Z,14.82
2018-06-14T07:38:06.220Z,14.96
2018-06-14T07:40:35.581Z,14.95
2018-06-14T07:43:04.746Z,14.45
2018-06-14T07:45:34.053Z,15.11
2018-06-14T07:48:03.428Z,15.17
2018-06-14T07:50:32.791Z,15.11
2018-06-14T07:53:02.182Z,15.09
2018-06-14T07:55:31.274Z,15.07
2018-06-14T07:58:00.368Z,15.17
2018-06-14T08:00:29.454Z,15.13
2018-06-14T08:02:58.807Z,15.77
2018-06-14T08:05:28.189Z,15.29
2018-06-14T08:07:57.552Z,15.20
2018-06-14T08:10:26.923Z,15.28
2018-06-14T08:12:56.288Z,15.34
2018-06-14T08:15:25.653Z,15.30
2018-06-14T08:17:55.016Z,15.31
2018-06-14T08:20:24.394Z,15.29
2018-06-14T08:22:53.764Z,15.22
2018-06-14T08:25:23.133Z,15.05
2018-06-14T08:27:52.500Z,15.20
2018-06-14T08:30:21.864Z,15.24
2018-06-14T08:32:51.216Z,15.32
2018-06-14T08:35:20.577Z,15.28
2018-06-14T08:37:49.935Z,15.17
2018-06-14T08:40:19.288Z,15.16
2018-06-14T08:42:48.379Z,15.22
2018-06-14T08:45:17.473Z,15.15
2018-06-14T08:47:46.583Z,15.25
2018-06-14T08:50:16.225Z,15.19
2018-06-14T08:52:45.616Z,15.24
2018-06-14T08:55:14.975Z,15.32
2018-06-14T08:57:44.066Z,15.37
2018-06-14T09:00:13.408Z,15.22
2018-06-14T09:02:42.772Z,15.39
2018-06-14T09:05:12.176Z,15.41
2018-06-14T09:07:41.516Z,16.15
2018-06-14T09:10:10.908Z,15.55
2018-06-14T09:12:40.288Z,15.63
2018-06-14T09:15:09.403Z,14.26
2018-06-14T09:17:38.760Z,15.62
2018-06-14T09:20:09.377Z,15.70
2018-06-14T09:22:38.731Z,15.75
2018-06-14T09:25:08.088Z,15.74
2018-06-14T09:27:37.429Z,15.78
2018-06-14T09:30:06.804Z,15.84
2018-06-14T09:32:36.155Z,15.82
2018-06-14T09:35:05.600Z,15.90
2018-06-14T09:37:34.965Z,15.93
2018-06-14T09:40:04.359Z,16.07
2018-06-14T09:42:33.733Z,16.08
2018-06-14T09:45:03.279Z,16.07
2018-06-14T09:47:32.642Z,16.15
2018-06-14T09:50:02.028Z,16.11
2018-06-14T09:52:31.440Z,16.12
2018-06-14T09:55:00.548Z,16.12
2018-06-14T09:57:29.916Z,16.26
2018-06-14T09:59:59.303Z,16.32
2018-06-14T10:02:28.671Z,16.39
2018-06-14T10:04:58.048Z,16.48
2018-06-14T10:07:27.441Z,16.50
2018-06-14T10:09:56.555Z,16.60
2018-06-14T10:12:25.935Z,16.72
2018-06-14T10:14:55.055Z,16.83
2018-06-14T10:17:24.428Z,16.93
2018-06-14T10:19:53.800Z,17.02
2018-06-14T10:22:23.177Z,17.11
2018-06-14T10:24:52.543Z,17.13
2018-06-14T10:27:21.663Z,17.22
2018-06-14T10:29:51.108Z,17.29
2018-06-14T10:32:20.481Z,17.26
2018-06-14T10:34:49.842Z,17.39
2018-06-14T10:37:18.975Z,17.55
2018-06-14T10:39:48.305Z,17.52
2018-06-14T10:42:17.683Z,17.61
2018-06-14T10:44:47.036Z,17.51
2018-06-14T10:47:16.412Z,17.66
2018-06-14T10:49:45.811Z,17.60
2018-06-14T10:52:15.174Z,17.60
2018-06-14T10:54:44.533Z,17.74
2018-06-14T10:57:13.897Z,17.64
2018-06-14T10:59:43.259Z,17.90
2018-06-14T11:02:12.654Z,17.78
2018-06-14T11:04:41.743Z,17.78
2018-06-14T11:07:10.856Z,17.86
2018-06-14T11:09:40.211Z,17.89
2018-06-14T11:12:09.559Z,18.03
2018-06-14T11:14:38.895Z,17.83
2018-06-14T11:17:08.220Z,18.06
2018-06-14T11:19:37.534Z,18.00
2018-06-14T11:22:06.609Z,18.09
2018-06-14T11:24:35.964Z,18.01
2018-06-14T11:27:05.365Z,17.92
2018-06-14T11:29:34.685Z,17.85
2018-06-14T11:32:04.024Z,17.83
2018-06-14T11:34:33.365Z,17.83
2018-06-14T11:37:02.748Z,17.86
2018-06-14T11:39:32.123Z,17.69
2018-06-14T11:42:01.445Z,17.61
2018-06-14T11:44:30.506Z,17.56
2018-06-14T11:46:59.836Z,17.55
2018-06-14T11:49:28.904Z,17.64
2018-06-14T11:51:58.276Z,17.74
2018-06-14T11:54:27.599Z,17.55
2018-06-14T11:56:56.964Z,17.59
2018-06-14T11:59:26.317Z,17.64
2018-06-14T12:01:55.652Z,17.67
2018-06-14T12:04:24.998Z,17.63
2018-06-14T12:06:54.339Z,17.38
2018-06-14T12:09:23.432Z,17.37
2018-06-14T12:11:52.812Z,17.37
2018-06-14T12:14:22.156Z,17.44
2018-06-14T12:16:51.491Z,17.55
2018-06-14T12:19:21.043Z,17.54
2018-06-14T12:21:50.132Z,18.20
2018-06-14T12:24:19.451Z,18.89
2018-06-14T12:26:48.776Z,17.75
2018-06-14T12:29:18.109Z,17.95
2018-06-14T12:31:47.435Z,18.04
2018-06-14T12:34:16.751Z,18.14
2018-06-14T12:36:45.855Z,18.22
2018-06-14T12:39:15.179Z,18.06
2018-06-14T12:41:44.548Z,18.01
2018-06-14T12:44:13.952Z,18.03
2018-06-14T12:46:43.100Z,18.15
2018-06-14T12:49:12.455Z,17.59
2018-06-14T12:51:41.789Z,17.82
2018-06-14T12:54:11.132Z,17.81
2018-06-14T12:56:40.231Z,17.88
2018-06-14T12:59:09.347Z,18.00
2018-06-14T13:01:38.692Z,18.15
2018-06-14T13:04:08.971Z,18.10
2018-06-14T13:06:38.305Z,18.24
2018-06-14T13:09:10.456Z,18.24
2018-06-14T13:11:39.996Z,18.33
2018-06-14T13:14:09.740Z,18.41
2018-06-14T13:16:39.217Z,18.37
2018-06-14T13:19:08.851Z,18.46
2018-06-14T13:21:37.967Z,18.56
2018-06-14T13:24:07.365Z,18.81
2018-06-14T13:26:36.718Z,19.39
2018-06-14T13:29:06.109Z,19.79
2018-06-14T13:31:35.472Z,20.13
2018-06-14T13:34:04.905Z,19.81
2018-06-14T13:36:34.288Z,20.01
2018-06-14T13:39:03.891Z,20.01
2018-06-14T13:41:33.272Z,19.87
2018-06-14T13:44:02.654Z,19.86
2018-06-14T13:46:32.004Z,19.73
2018-06-14T13:49:01.509Z,19.69
2018-06-14T13:51:30.789Z,19.64
2018-06-14T13:54:00.139Z,19.48
2018-06-14T13:56:29.520Z,19.63
2018-06-14T13:58:58.896Z,20.11
2018-06-14T14:01:28.254Z,20.21
2018-06-14T14:03:57.641Z,20.57
2018-06-14T14:06:27.033Z,20.87
2018-06-14T14:08:56.413Z,21.07
2018-06-14T14:11:25.777Z,21.67
2018-06-14T14:13:55.590Z,21.72
2018-06-14T14:16:24.684Z,22.05
2018-06-14T14:18:53.779Z,21.35
2018-06-14T14:21:22.855Z,22.10
2018-06-14T14:23:52.209Z,21.90
2018-06-14T14:26:21.542Z,21.87
2018-06-14T14:28:50.877Z,22.59
2018-06-14T14:31:20.341Z,22.68
2018-06-14T14:33:49.382Z,22.63
2018-06-14T14:36:18.786Z,22.79
2018-06-14T14:38:48.112Z,22.69
2018-06-14T14:41:17.456Z,21.22
2018-06-14T14:43:46.780Z,20.60
2018-06-14T14:46:16.146Z,20.02
2018-06-14T14:48:45.499Z,20.03
2018-06-14T14:51:14.852Z,19.88
2018-06-14T14:53:44.279Z,20.26
2018-06-14T14:56:13.627Z,21.58
2018-06-14T14:58:42.981Z,22.38
2018-06-14T15:01:12.082Z,22.91
2018-06-14T15:03:41.476Z,23.23
2018-06-14T15:06:10.564Z,23.68
2018-06-14T15:08:39.957Z,22.94
2018-06-14T15:11:09.302Z,23.35
2018-06-14T15:13:38.669Z,23.36
2018-06-14T15:16:09.264Z,23.37
2018-06-14T15:18:38.589Z,23.14
2018-06-14T15:21:07.992Z,23.35
2018-06-14T15:23:37.549Z,22.86
2018-06-14T15:26:06.888Z,23.00
2018-06-14T15:28:36.341Z,22.99
2018-06-14T15:31:05.683Z,23.39
2018-06-14T15:33:35.273Z,22.67
2018-06-14T15:36:04.600Z,22.71
2018-06-14T15:38:33.936Z,22.62
2018-06-14T15:41:03.272Z,22.58
2018-06-14T15:43:32.745Z,22.44
2018-06-14T15:46:02.074Z,22.58
2018-06-14T15:48:32.248Z,22.12
2018-06-14T15:51:01.587Z,21.80
2018-06-14T15:53:30.941Z,21.57
2018-06-14T15:56:25.492Z,21.11
2018-06-14T15:58:54.840Z,21.29
2018-06-14T16:01:24.180Z,20.68
2018-06-14T16:03:53.791Z,20.81
2018-06-14T16:06:23.140Z,20.81
2018-06-14T16:08:52.507Z,20.54
2018-06-14T16:11:21.848Z,20.45
2018-06-14T16:13:51.242Z,20.18
2018-06-14T16:16:20.611Z,19.92
2018-06-14T16:18:49.973Z,19.92
2018-06-14T16:21:19.382Z,19.80
2018-06-14T16:23:48.788Z,19.88
2018-06-14T16:26:18.163Z,19.82
2018-06-14T16:28:47.536Z,61.34
2018-06-14T16:31:16.912Z,19.85
2018-06-14T16:33:46.357Z,19.93
2018-06-14T16:36:15.706Z,20.10
2018-06-14T16:38:45.082Z,20.22
2018-06-14T16:41:14.199Z,19.48
2018-06-14T16:43:43.580Z,20.27
2018-06-14T16:46:12.949Z,20.16
2018-06-14T16:48:42.554Z,19.97
2018-06-14T16:51:12.018Z,20.01
2018-06-14T16:53:41.628Z,19.70
2018-06-14T16:56:11.004Z,19.79
2018-06-14T16:58:40.553Z,19.72
2018-06-14T17:01:09.926Z,19.60
2018-06-14T17:03:39.304Z,19.71
2018-06-14T17:06:09.324Z,19.70
2018-06-14T17:08:38.462Z,19.66
2018-06-14T17:11:07.840Z,19.46
2018-06-14T17:13:37.217Z,19.57
2018-06-14T17:16:06.379Z,19.41
2018-06-14T17:18:35.719Z,19.42
2018-06-14T17:21:05.107Z,19.55
2018-06-14T17:23:34.478Z,19.39
2018-06-14T17:26:03.874Z,19.72
2018-06-14T17:28:33.240Z,19.70
2018-06-14T17:31:02.635Z,19.58
2018-06-14T17:33:31.748Z,18.91
2018-06-14T17:36:01.132Z,19.60
2018-06-14T17:38:30.334Z,19.54
2018-06-14T17:40:59.703Z,19.47
2018-06-14T17:43:29.100Z,19.35
2018-06-14T17:45:58.475Z,19.31
2018-06-14T17:48:27.833Z,19.37
2018-06-14T17:50:56.927Z,19.35
2018-06-14T17:53:26.375Z,18.52
2018-06-14T17:55:55.697Z,19.13
2018-06-14T17:58:25.040Z,19.09
2018-06-14T18:00:54.476Z,19.28
2018-06-14T18:03:23.764Z,19.00
2018-06-14T18:05:53.154Z,19.07
2018-06-14T18:08:22.529Z,18.98
2018-06-14T18:10:51.640Z,18.88
2018-06-14T18:13:21.024Z,18.81
2018-06-14T18:15:50.452Z,18.70
2018-06-14T18:18:19.766Z,18.58
2018-06-14T18:20:49.153Z,18.49
2018-06-14T18:23:18.573Z,18.37
2018-06-14T18:25:47.919Z,18.43
2018-06-14T18:28:17.285Z,18.40
2018-06-14T18:30:46.668Z,18.20
2018-06-14T18:33:16.036Z,18.10
2018-06-14T18:35:45.423Z,17.96
2018-06-14T18:38:14.808Z,17.82
2018-06-14T18:40:44.184Z,17.69
2018-06-14T18:43:13.543Z,17.51
2018-06-14T18:45:42.644Z,17.34
2018-06-14T18:48:11.749Z,17.22
2018-06-14T18:50:41.120Z,16.97
2018-06-14T18:53:10.516Z,16.75
2018-06-14T18:55:39.855Z,16.59
2018-06-14T18:58:09.381Z,16.55
2018-06-14T19:00:38.764Z,16.35
2018-06-14T19:03:08.148Z,16.10
2018-06-14T19:05:37.251Z,15.98
2018-06-14T19:08:06.659Z,15.82
2018-06-14T19:10:35.860Z,15.83
2018-06-14T19:13:05.259Z,15.66
2018-06-14T19:15:34.369Z,15.56
2018-06-14T19:18:03.720Z,15.48
2018-06-14T19:20:33.093Z,15.37
2018-06-14T19:23:02.441Z,15.32
2018-06-14T19:25:31.877Z,15.09
2018-06-14T19:28:01.239Z,15.08
2018-06-14T19:30:30.580Z,14.95
2018-06-14T19:32:59.931Z,14.93
2018-06-14T19:35:29.266Z,14.71
2018-06-14T19:37:58.604Z,14.61
2018-06-14T19:40:27.931Z,14.65
2018-06-14T19:42:57.271Z,14.52
2018-06-14T19:45:26.627Z,14.40
2018-06-14T19:47:55.956Z,14.55
2018-06-14T19:50:25.052Z,14.33
2018-06-14T19:52:54.152Z,14.32
2018-06-14T19:55:23.240Z,14.16
2018-06-14T19:57:52.334Z,14.10
2018-06-14T20:00:21.685Z,13.45
2018-06-14T20:02:51.036Z,14.20
2018-06-14T20:05:20.115Z,14.11
2018-06-14T20:07:49.445Z,13.99
2018-06-14T20:10:18.777Z,13.93
2018-06-14T20:12:48.181Z,13.94
2018-06-14T20:15:17.512Z,13.72
2018-06-14T20:17:46.864Z,13.74
2018-06-14T20:20:16.199Z,13.72
2018-06-14T20:22:45.569Z,13.70
2018-06-14T20:25:15.665Z,13.56
2018-06-14T20:27:45.186Z,13.48
2018-06-14T20:30:14.533Z,13.48
2018-06-14T20:32:43.869Z,13.32
2018-06-14T20:35:13.235Z,13.23
2018-06-14T20:37:42.575Z,13.09
2018-06-14T20:40:11.673Z,13.06
2018-06-14T20:42:41.014Z,13.06
2018-06-14T20:45:10.397Z,13.14
2018-06-14T20:47:39.753Z,13.31
2018-06-14T20:50:09.217Z,13.17
2018-06-14T20:52:38.559Z,12.97
2018-06-14T20:55:07.945Z,12.87
2018-06-14T20:57:37.340Z,12.83
2018-06-14T21:00:06.617Z,12.54
2018-06-14T21:02:35.944Z,12.38
2018-06-14T21:05:05.302Z,12.35
2018-06-14T21:07:34.631Z,12.34
2018-06-14T21:10:03.985Z,12.29
2018-06-14T21:12:33.323Z,12.27
2018-06-14T21:15:02.692Z,12.17
2018-06-14T21:17:38.024Z,12.31
2018-06-14T21:20:08.239Z,12.13
2018-06-14T21:22:37.524Z,12.13
2018-06-14T21:25:08.039Z,11.72
2018-06-14T21:27:37.396Z,12.01
2018-06-14T21:30:06.737Z,11.86
2018-06-14T21:32:36.067Z,11.95
2018-06-14T21:35:05.611Z,11.90
2018-06-14T21:37:34.942Z,11.88
2018-06-14T21:40:04.347Z,11.87
2018-06-14T21:42:33.756Z,11.74
2018-06-14T21:45:03.116Z,11.59
2018-06-14T21:47:32.515Z,11.57
2018-06-14T21:50:01.866Z,11.43
2018-06-14T21:52:31.202Z,11.36
2018-06-14T21:55:00.295Z,11.34
2018-06-14T21:57:29.368Z,11.17
2018-06-14T21:59:58.724Z,11.98
2018-06-14T22:02:28.059Z,11.32
2018-06-14T22:04:57.395Z,11.30
2018-06-14T22:07:26.720Z,11.30
2018-06-14T22:09:56.061Z,11.32
2018-06-14T22:12:25.388Z,11.22
2018-06-14T22:14:54.479Z,11.18
2018-06-14T22:17:23.816Z,11.19
2018-06-14T22:19:53.147Z,11.01
2018-06-14T22:22:22.499Z,11.00
2018-06-14T22:24:51.840Z,10.95
2018-06-14T22:27:21.175Z,10.91
2018-06-14T22:29:50.500Z,10.98
2018-06-14T22:32:19.901Z,11.05
2018-06-14T22:35:06.229Z,10.87
2018-06-14T22:37:35.568Z,10.76
2018-06-14T22:40:05.112Z,10.54
2018-06-14T22:42:34.452Z,10.68
2018-06-14T22:45:03.789Z,10.66
2018-06-14T22:47:32.880Z,10.52
2018-06-14T22:50:01.972Z,10.51
2018-06-14T22:53:03.554Z,10.48
2018-06-14T22:55:32.891Z,9.75
2018-06-14T22:58:02.228Z,10.43
2018-06-14T23:01:49.543Z,10.49
2018-06-14T23:04:21.122Z,10.39
2018-06-14T23:06:50.262Z,9.63
2018-06-14T23:10:42.886Z,10.37
2018-06-14T23:13:14.523Z,10.29
2018-06-14T23:15:43.598Z,10.19
2018-06-14T23:18:13.000Z,10.11
2018-06-14T23:20:42.334Z,9.92
2018-06-14T23:23:11.683Z,10.17
2018-06-14T23:25:41.051Z,10.03
2018-06-14T23:28:10.395Z,9.98
2018-06-14T23:30:39.759Z,10.08
2018-06-14T23:33:09.131Z,10.00
2018-06-14T23:35:38.223Z,9.95
2018-06-14T23:38:08.363Z,9.96
2018-06-14T23:40:37.711Z,9.86
2018-06-14T23:43:07.128Z,9.78
2018-06-14T23:45:36.439Z,9.63
2018-06-14T23:48:05.757Z,9.72
2018-06-14T23:50:35.069Z,9.76
2018-06-14T23:53:04.384Z,9.73
2018-06-14T23:55:33.678Z,9.79
2018-06-14T23:58:03.010Z,9.77
